sensor_id;sensor_type;location;lat;lon;timestamp;temperature;humidity
11239;DHT22;5677;48.488;13.436;2023-04-24T00:00:17;14.60;45.60
11239;DHT22;5677;48.488;13.436;2023-04-24T00:02:44;14.50;45.60
11239;DHT22;5677;48.488;13.436;2023-04-24T00:05:14;14.60;45.60
11239;DHT22;5677;48.488;13.436;2023-04-24T00:07:43;14.60;45.60
11239;DHT22;5677;48.488;13.436;2023-04-24T00:10:11;14.50;45.60
11239;DHT22;5677;48.488;13.436;2023-04-24T00:12:38;14.50;45.60
11239;DHT22;5677;48.488;13.436;2023-04-24T00:15:06;14.60;45.60
11239;DHT22;5677;48.488;13.436;2023-04-24T00:17:32;14.50;45.60
11239;DHT22;5677;48.488;13.436;2023-04-24T00:19:59;14.50;45.60
11239;DHT22;5677;48.488;13.436;2023-04-24T00:22:30;14.50;45.60
11239;DHT22;5677;48.488;13.436;2023-04-24T00:24:57;14.50;45.60
11239;DHT22;5677;48.488;13.436;2023-04-24T00:27:24;14.50;45.60
11239;DHT22;5677;48.488;13.436;2023-04-24T00:29:50;14.50;45.60
11239;DHT22;5677;48.488;13.436;2023-04-24T00:32:17;14.50;45.60
11239;DHT22;5677;48.488;13.436;2023-04-24T00:34:44;14.50;45.60
11239;DHT22;5677;48.488;13.436;2023-04-24T00:37:11;14.50;45.60
11239;DHT22;5677;48.488;13.436;2023-04-24T00:39:39;14.50;45.70
11239;DHT22;5677;48.488;13.436;2023-04-24T00:42:06;14.50;45.60
11239;DHT22;5677;48.488;13.436;2023-04-24T00:44:33;14.50;45.60
11239;DHT22;5677;48.488;13.436;2023-04-24T00:47:00;14.50;45.60
11239;DHT22;5677;48.488;13.436;2023-04-24T00:49:27;14.50;45.70
11239;DHT22;5677;48.488;13.436;2023-04-24T00:51:54;14.50;45.60
11239;DHT22;5677;48.488;13.436;2023-04-24T00:54:22;14.50;45.60
11239;DHT22;5677;48.488;13.436;2023-04-24T00:56:50;14.50;45.60
11239;DHT22;5677;48.488;13.436;2023-04-24T00:59:17;14.50;45.60
11239;DHT22;5677;48.488;13.436;2023-04-24T01:01:44;14.50;45.70
11239;DHT22;5677;48.488;13.436;2023-04-24T01:04:12;14.50;45.70
11239;DHT22;5677;48.488;13.436;2023-04-24T01:06:39;14.50;45.70
11239;DHT22;5677;48.488;13.436;2023-04-24T01:09:07;14.50;45.70
11239;DHT22;5677;48.488;13.436;2023-04-24T01:11:34;14.50;45.60
11239;DHT22;5677;48.488;13.436;2023-04-24T01:14:02;14.50;45.70
11239;DHT22;5677;48.488;13.436;2023-04-24T01:16:29;14.50;45.70
11239;DHT22;5677;48.488;13.436;2023-04-24T01:18:56;14.50;45.70
11239;DHT22;5677;48.488;13.436;2023-04-24T01:21:23;14.50;45.70
11239;DHT22;5677;48.488;13.436;2023-04-24T01:23:55;14.50;45.70
11239;DHT22;5677;48.488;13.436;2023-04-24T01:26:23;14.50;45.70
11239;DHT22;5677;48.488;13.436;2023-04-24T01:28:51;14.50;45.70
11239;DHT22;5677;48.488;13.436;2023-04-24T01:31:18;14.50;45.70
11239;DHT22;5677;48.488;13.436;2023-04-24T01:33:45;14.50;45.70
11239;DHT22;5677;48.488;13.436;2023-04-24T01:36:12;14.50;45.70
11239;DHT22;5677;48.488;13.436;2023-04-24T01:38:40;14.40;45.60
11239;DHT22;5677;48.488;13.436;2023-04-24T01:41:08;14.50;45.70
11239;DHT22;5677;48.488;13.436;2023-04-24T01:43:35;14.50;45.70
11239;DHT22;5677;48.488;13.436;2023-04-24T01:46:01;14.40;45.60
11239;DHT22;5677;48.488;13.436;2023-04-24T01:48:28;14.50;45.70
11239;DHT22;5677;48.488;13.436;2023-04-24T01:50:56;14.50;45.70
11239;DHT22;5677;48.488;13.436;2023-04-24T01:53:23;14.40;45.60
11239;DHT22;5677;48.488;13.436;2023-04-24T01:55:50;14.40;45.60
11239;DHT22;5677;48.488;13.436;2023-04-24T01:58:18;14.40;45.60
11239;DHT22;5677;48.488;13.436;2023-04-24T02:00:45;14.40;45.60
11239;DHT22;5677;48.488;13.436;2023-04-24T02:03:11;14.50;45.70
11239;DHT22;5677;48.488;13.436;2023-04-24T02:05:38;14.50;45.70
11239;DHT22;5677;48.488;13.436;2023-04-24T02:08:05;14.50;45.70
11239;DHT22;5677;48.488;13.436;2023-04-24T02:10:31;14.50;45.70
11239;DHT22;5677;48.488;13.436;2023-04-24T02:12:58;14.50;45.70
11239;DHT22;5677;48.488;13.436;2023-04-24T02:15:27;14.50;45.70
11239;DHT22;5677;48.488;13.436;2023-04-24T02:17:54;14.40;45.60
11239;DHT22;5677;48.488;13.436;2023-04-24T02:20:21;14.40;45.60
11239;DHT22;5677;48.488;13.436;2023-04-24T02:22:48;14.40;45.60
11239;DHT22;5677;48.488;13.436;2023-04-24T02:25:14;14.40;45.60
11239;DHT22;5677;48.488;13.436;2023-04-24T02:27:41;14.40;45.70
11239;DHT22;5677;48.488;13.436;2023-04-24T02:30:09;14.40;45.70
11239;DHT22;5677;48.488;13.436;2023-04-24T02:32:37;14.40;45.60
11239;DHT22;5677;48.488;13.436;2023-04-24T02:35:05;14.40;45.70
11239;DHT22;5677;48.488;13.436;2023-04-24T02:37:32;14.40;45.70
11239;DHT22;5677;48.488;13.436;2023-04-24T02:39:58;14.40;45.70
11239;DHT22;5677;48.488;13.436;2023-04-24T02:42:25;14.40;45.70
11239;DHT22;5677;48.488;13.436;2023-04-24T02:44:52;14.40;45.70
11239;DHT22;5677;48.488;13.436;2023-04-24T02:47:19;14.40;45.70
11239;DHT22;5677;48.488;13.436;2023-04-24T02:49:47;14.40;45.70
11239;DHT22;5677;48.488;13.436;2023-04-24T02:52:13;14.40;45.70
11239;DHT22;5677;48.488;13.436;2023-04-24T02:54:42;14.40;45.70
11239;DHT22;5677;48.488;13.436;2023-04-24T02:57:08;14.40;45.70
11239;DHT22;5677;48.488;13.436;2023-04-24T02:59:35;14.40;45.60
11239;DHT22;5677;48.488;13.436;2023-04-24T03:02:02;14.40;45.70
11239;DHT22;5677;48.488;13.436;2023-04-24T03:04:29;14.40;45.70
11239;DHT22;5677;48.488;13.436;2023-04-24T03:06:57;14.40;45.70
11239;DHT22;5677;48.488;13.436;2023-04-24T03:09:24;14.40;45.70
11239;DHT22;5677;48.488;13.436;2023-04-24T03:11:51;14.40;45.70
11239;DHT22;5677;48.488;13.436;2023-04-24T03:14:18;14.40;45.70
11239;DHT22;5677;48.488;13.436;2023-04-24T03:16:44;14.40;45.70
11239;DHT22;5677;48.488;13.436;2023-04-24T03:19:11;14.40;45.70
11239;DHT22;5677;48.488;13.436;2023-04-24T03:21:39;14.40;45.70
11239;DHT22;5677;48.488;13.436;2023-04-24T03:24:07;14.40;45.70
11239;DHT22;5677;48.488;13.436;2023-04-24T03:26:35;14.40;45.70
11239;DHT22;5677;48.488;13.436;2023-04-24T03:29:02;14.40;45.70
11239;DHT22;5677;48.488;13.436;2023-04-24T03:31:28;14.40;45.70
11239;DHT22;5677;48.488;13.436;2023-04-24T03:33:55;14.40;45.80
11239;DHT22;5677;48.488;13.436;2023-04-24T03:36:22;14.40;45.70
11239;DHT22;5677;48.488;13.436;2023-04-24T03:38:48;14.40;45.70
11239;DHT22;5677;48.488;13.436;2023-04-24T03:41:17;14.40;45.70
11239;DHT22;5677;48.488;13.436;2023-04-24T03:43:44;14.40;45.70
11239;DHT22;5677;48.488;13.436;2023-04-24T03:46:11;14.40;45.80
11239;DHT22;5677;48.488;13.436;2023-04-24T03:48:37;14.40;45.80
11239;DHT22;5677;48.488;13.436;2023-04-24T03:51:04;14.40;45.80
11239;DHT22;5677;48.488;13.436;2023-04-24T03:53:31;14.30;45.90
11239;DHT22;5677;48.488;13.436;2023-04-24T03:55:58;14.40;45.80
11239;DHT22;5677;48.488;13.436;2023-04-24T03:58:26;14.40;45.80
11239;DHT22;5677;48.488;13.436;2023-04-24T04:00:53;14.30;45.90
11239;DHT22;5677;48.488;13.436;2023-04-24T04:03:19;14.40;45.80
11239;DHT22;5677;48.488;13.436;2023-04-24T04:05:46;14.30;45.80
11239;DHT22;5677;48.488;13.436;2023-04-24T04:08:13;14.40;45.90
11239;DHT22;5677;48.488;13.436;2023-04-24T04:10:40;14.30;45.80
11239;DHT22;5677;48.488;13.436;2023-04-24T04:13:06;14.30;45.80
11239;DHT22;5677;48.488;13.436;2023-04-24T04:15:34;14.30;45.80
11239;DHT22;5677;48.488;13.436;2023-04-24T04:18:01;14.30;45.80
11239;DHT22;5677;48.488;13.436;2023-04-24T04:20:28;14.30;45.80
11239;DHT22;5677;48.488;13.436;2023-04-24T04:22:55;14.30;45.90
11239;DHT22;5677;48.488;13.436;2023-04-24T04:25:22;14.30;45.90
11239;DHT22;5677;48.488;13.436;2023-04-24T04:27:48;14.30;45.90
11239;DHT22;5677;48.488;13.436;2023-04-24T04:30:16;14.30;46.50
11239;DHT22;5677;48.488;13.436;2023-04-24T04:32:44;14.30;45.80
11239;DHT22;5677;48.488;13.436;2023-04-24T04:35:11;14.30;45.90
11239;DHT22;5677;48.488;13.436;2023-04-24T04:37:38;14.30;45.80
11239;DHT22;5677;48.488;13.436;2023-04-24T04:40:06;14.30;45.90
11239;DHT22;5677;48.488;13.436;2023-04-24T04:42:35;14.30;45.90
11239;DHT22;5677;48.488;13.436;2023-04-24T04:45:06;14.30;45.90
11239;DHT22;5677;48.488;13.436;2023-04-24T04:47:34;14.30;45.90
11239;DHT22;5677;48.488;13.436;2023-04-24T04:50:02;14.30;45.90
11239;DHT22;5677;48.488;13.436;2023-04-24T04:52:30;14.40;46.50
11239;DHT22;5677;48.488;13.436;2023-04-24T04:54:57;14.30;45.90
11239;DHT22;5677;48.488;13.436;2023-04-24T04:57:24;14.30;45.90
11239;DHT22;5677;48.488;13.436;2023-04-24T04:59:51;14.30;45.90
11239;DHT22;5677;48.488;13.436;2023-04-24T05:02:18;14.30;45.90
11239;DHT22;5677;48.488;13.436;2023-04-24T05:04:44;14.30;45.90
11239;DHT22;5677;48.488;13.436;2023-04-24T05:07:12;14.30;45.90
11239;DHT22;5677;48.488;13.436;2023-04-24T05:09:39;14.30;45.90
11239;DHT22;5677;48.488;13.436;2023-04-24T05:12:06;14.30;45.90
11239;DHT22;5677;48.488;13.436;2023-04-24T05:14:33;14.30;45.90
11239;DHT22;5677;48.488;13.436;2023-04-24T05:17:00;14.30;45.90
11239;DHT22;5677;48.488;13.436;2023-04-24T05:19:26;14.30;45.90
11239;DHT22;5677;48.488;13.436;2023-04-24T05:21:53;14.30;45.90
11239;DHT22;5677;48.488;13.436;2023-04-24T05:24:21;14.30;46.00
11239;DHT22;5677;48.488;13.436;2023-04-24T05:26:48;14.30;45.90
11239;DHT22;5677;48.488;13.436;2023-04-24T05:29:15;14.30;45.90
11239;DHT22;5677;48.488;13.436;2023-04-24T05:31:41;14.30;45.90
11239;DHT22;5677;48.488;13.436;2023-04-24T05:34:08;14.30;45.90
11239;DHT22;5677;48.488;13.436;2023-04-24T05:36:35;14.30;45.90
11239;DHT22;5677;48.488;13.436;2023-04-24T05:39:02;14.30;45.90
11239;DHT22;5677;48.488;13.436;2023-04-24T05:41:31;14.30;45.90
11239;DHT22;5677;48.488;13.436;2023-04-24T05:43:58;14.30;46.00
11239;DHT22;5677;48.488;13.436;2023-04-24T05:46:25;14.30;45.90
11239;DHT22;5677;48.488;13.436;2023-04-24T05:48:51;14.30;45.90
11239;DHT22;5677;48.488;13.436;2023-04-24T05:51:18;14.30;45.90
11239;DHT22;5677;48.488;13.436;2023-04-24T05:53:45;14.30;45.90
11239;DHT22;5677;48.488;13.436;2023-04-24T05:56:12;14.30;45.90
11239;DHT22;5677;48.488;13.436;2023-04-24T05:58:40;14.30;45.90
11239;DHT22;5677;48.488;13.436;2023-04-24T06:01:07;14.30;45.90
11239;DHT22;5677;48.488;13.436;2023-04-24T06:03:34;14.30;46.00
11239;DHT22;5677;48.488;13.436;2023-04-24T06:06:00;14.30;45.90
11239;DHT22;5677;48.488;13.436;2023-04-24T06:08:27;14.30;45.90
11239;DHT22;5677;48.488;13.436;2023-04-24T06:10:54;14.30;45.90
11239;DHT22;5677;48.488;13.436;2023-04-24T06:13:21;14.30;46.00
11239;DHT22;5677;48.488;13.436;2023-04-24T06:15:49;14.30;46.00
11239;DHT22;5677;48.488;13.436;2023-04-24T06:18:16;14.30;45.90
11239;DHT22;5677;48.488;13.436;2023-04-24T06:20:42;14.30;46.00
11239;DHT22;5677;48.488;13.436;2023-04-24T06:23:09;14.30;46.00
11239;DHT22;5677;48.488;13.436;2023-04-24T06:25:36;14.30;45.90
11239;DHT22;5677;48.488;13.436;2023-04-24T06:28:03;14.30;46.00
11239;DHT22;5677;48.488;13.436;2023-04-24T06:30:30;14.30;46.00
11239;DHT22;5677;48.488;13.436;2023-04-24T06:32:58;14.30;45.90
11239;DHT22;5677;48.488;13.436;2023-04-24T06:35:25;14.30;46.00
11239;DHT22;5677;48.488;13.436;2023-04-24T06:37:52;14.30;45.90
11239;DHT22;5677;48.488;13.436;2023-04-24T06:40:18;14.30;46.00
11239;DHT22;5677;48.488;13.436;2023-04-24T06:42:45;14.30;46.00
11239;DHT22;5677;48.488;13.436;2023-04-24T06:45:12;14.30;46.00
11239;DHT22;5677;48.488;13.436;2023-04-24T06:47:39;14.30;46.00
11239;DHT22;5677;48.488;13.436;2023-04-24T06:50:08;14.30;46.00
11239;DHT22;5677;48.488;13.436;2023-04-24T06:52:34;14.30;46.00
11239;DHT22;5677;48.488;13.436;2023-04-24T06:55:01;14.30;46.00
11239;DHT22;5677;48.488;13.436;2023-04-24T06:57:28;14.30;46.00
11239;DHT22;5677;48.488;13.436;2023-04-24T06:59:55;14.30;46.00
11239;DHT22;5677;48.488;13.436;2023-04-24T07:02:22;14.30;46.00
11239;DHT22;5677;48.488;13.436;2023-04-24T07:04:49;14.30;46.00
11239;DHT22;5677;48.488;13.436;2023-04-24T07:07:17;14.30;46.00
11239;DHT22;5677;48.488;13.436;2023-04-24T07:09:44;14.30;46.00
11239;DHT22;5677;48.488;13.436;2023-04-24T07:12:11;14.30;46.00
11239;DHT22;5677;48.488;13.436;2023-04-24T07:14:39;14.30;46.00
11239;DHT22;5677;48.488;13.436;2023-04-24T07:17:06;14.30;46.00
11239;DHT22;5677;48.488;13.436;2023-04-24T07:19:33;14.30;46.00
11239;DHT22;5677;48.488;13.436;2023-04-24T07:22:00;14.30;46.00
11239;DHT22;5677;48.488;13.436;2023-04-24T07:24:30;14.30;46.00
11239;DHT22;5677;48.488;13.436;2023-04-24T07:26:57;14.30;46.00
11239;DHT22;5677;48.488;13.436;2023-04-24T07:29:24;14.30;46.00
11239;DHT22;5677;48.488;13.436;2023-04-24T07:31:51;14.30;46.20
11239;DHT22;5677;48.488;13.436;2023-04-24T07:34:19;14.30;46.00
11239;DHT22;5677;48.488;13.436;2023-04-24T07:36:46;14.30;46.00
11239;DHT22;5677;48.488;13.436;2023-04-24T07:39:13;14.30;46.00
11239;DHT22;5677;48.488;13.436;2023-04-24T07:41:41;14.30;46.00
11239;DHT22;5677;48.488;13.436;2023-04-24T07:44:08;14.30;46.00
11239;DHT22;5677;48.488;13.436;2023-04-24T07:46:34;14.30;46.00
11239;DHT22;5677;48.488;13.436;2023-04-24T07:49:01;14.30;46.00
11239;DHT22;5677;48.488;13.436;2023-04-24T07:51:29;14.30;46.00
11239;DHT22;5677;48.488;13.436;2023-04-24T07:53:58;14.30;46.00
11239;DHT22;5677;48.488;13.436;2023-04-24T07:56:24;14.30;46.00
11239;DHT22;5677;48.488;13.436;2023-04-24T07:58:52;14.30;46.00
11239;DHT22;5677;48.488;13.436;2023-04-24T08:01:19;14.30;46.00
11239;DHT22;5677;48.488;13.436;2023-04-24T08:03:46;14.30;46.00
11239;DHT22;5677;48.488;13.436;2023-04-24T08:06:13;14.30;46.00
11239;DHT22;5677;48.488;13.436;2023-04-24T08:08:40;14.30;46.00
11239;DHT22;5677;48.488;13.436;2023-04-24T08:11:06;14.30;46.00
11239;DHT22;5677;48.488;13.436;2023-04-24T08:13:33;14.30;46.00
11239;DHT22;5677;48.488;13.436;2023-04-24T08:16:01;14.30;46.00
11239;DHT22;5677;48.488;13.436;2023-04-24T08:18:28;14.40;46.00
11239;DHT22;5677;48.488;13.436;2023-04-24T08:20:55;14.30;46.00
11239;DHT22;5677;48.488;13.436;2023-04-24T08:23:26;14.30;46.00
11239;DHT22;5677;48.488;13.436;2023-04-24T08:25:54;14.30;46.00
11239;DHT22;5677;48.488;13.436;2023-04-24T08:28:21;14.30;46.00
11239;DHT22;5677;48.488;13.436;2023-04-24T08:30:48;14.30;46.00
11239;DHT22;5677;48.488;13.436;2023-04-24T08:33:21;14.30;46.00
11239;DHT22;5677;48.488;13.436;2023-04-24T08:35:48;14.30;46.00
11239;DHT22;5677;48.488;13.436;2023-04-24T08:38:15;14.40;45.90
11239;DHT22;5677;48.488;13.436;2023-04-24T08:40:42;14.30;45.90
11239;DHT22;5677;48.488;13.436;2023-04-24T08:43:12;14.30;46.00
11239;DHT22;5677;48.488;13.436;2023-04-24T08:45:39;14.30;45.90
11239;DHT22;5677;48.488;13.436;2023-04-24T08:48:07;14.40;46.00
11239;DHT22;5677;48.488;13.436;2023-04-24T08:50:36;14.40;45.90
11239;DHT22;5677;48.488;13.436;2023-04-24T08:53:04;14.30;45.90
11239;DHT22;5677;48.488;13.436;2023-04-24T08:55:32;14.30;46.00
11239;DHT22;5677;48.488;13.436;2023-04-24T08:58:00;14.40;46.00
11239;DHT22;5677;48.488;13.436;2023-04-24T09:00:28;14.30;46.00
11239;DHT22;5677;48.488;13.436;2023-04-24T09:02:55;14.40;46.00
11239;DHT22;5677;48.488;13.436;2023-04-24T09:05:23;14.40;46.00
11239;DHT22;5677;48.488;13.436;2023-04-24T09:07:53;14.30;46.00
11239;DHT22;5677;48.488;13.436;2023-04-24T09:10:21;14.40;46.00
11239;DHT22;5677;48.488;13.436;2023-04-24T09:12:50;14.30;46.00
11239;DHT22;5677;48.488;13.436;2023-04-24T09:15:17;14.40;46.00
11239;DHT22;5677;48.488;13.436;2023-04-24T09:17:44;14.40;46.00
11239;DHT22;5677;48.488;13.436;2023-04-24T09:20:11;14.40;46.00
11239;DHT22;5677;48.488;13.436;2023-04-24T09:22:38;14.40;46.00
11239;DHT22;5677;48.488;13.436;2023-04-24T09:25:07;14.40;46.00
11239;DHT22;5677;48.488;13.436;2023-04-24T09:27:35;14.40;46.00
11239;DHT22;5677;48.488;13.436;2023-04-24T09:30:03;14.40;46.00
11239;DHT22;5677;48.488;13.436;2023-04-24T09:32:29;14.40;46.00
11239;DHT22;5677;48.488;13.436;2023-04-24T09:35:08;14.40;46.00
11239;DHT22;5677;48.488;13.436;2023-04-24T09:37:36;14.40;46.00
11239;DHT22;5677;48.488;13.436;2023-04-24T09:40:16;14.40;46.00
11239;DHT22;5677;48.488;13.436;2023-04-24T09:42:44;14.40;46.00
11239;DHT22;5677;48.488;13.436;2023-04-24T09:45:12;14.40;46.00
11239;DHT22;5677;48.488;13.436;2023-04-24T09:47:39;14.40;46.00
11239;DHT22;5677;48.488;13.436;2023-04-24T09:50:10;14.40;46.10
11239;DHT22;5677;48.488;13.436;2023-04-24T09:52:40;14.40;46.00
11239;DHT22;5677;48.488;13.436;2023-04-24T09:55:16;14.40;46.00
11239;DHT22;5677;48.488;13.436;2023-04-24T09:57:54;14.40;46.00
11239;DHT22;5677;48.488;13.436;2023-04-24T10:00:26;14.40;46.10
11239;DHT22;5677;48.488;13.436;2023-04-24T10:02:57;14.40;46.00
11239;DHT22;5677;48.488;13.436;2023-04-24T10:05:27;14.40;46.00
11239;DHT22;5677;48.488;13.436;2023-04-24T10:07:57;14.40;46.00
11239;DHT22;5677;48.488;13.436;2023-04-24T10:10:25;14.40;46.00
11239;DHT22;5677;48.488;13.436;2023-04-24T10:12:52;14.40;45.90
11239;DHT22;5677;48.488;13.436;2023-04-24T10:15:20;14.40;46.00
11239;DHT22;5677;48.488;13.436;2023-04-24T10:17:48;14.40;46.00
11239;DHT22;5677;48.488;13.436;2023-04-24T10:20:18;14.40;46.00
11239;DHT22;5677;48.488;13.436;2023-04-24T10:22:47;14.40;46.00
11239;DHT22;5677;48.488;13.436;2023-04-24T10:25:16;14.40;46.00
11239;DHT22;5677;48.488;13.436;2023-04-24T10:27:44;14.40;46.00
11239;DHT22;5677;48.488;13.436;2023-04-24T10:30:13;14.40;46.00
11239;DHT22;5677;48.488;13.436;2023-04-24T10:32:39;14.40;46.00
11239;DHT22;5677;48.488;13.436;2023-04-24T10:35:07;14.40;46.00
11239;DHT22;5677;48.488;13.436;2023-04-24T10:37:37;14.40;46.00
11239;DHT22;5677;48.488;13.436;2023-04-24T10:40:06;14.40;46.00
11239;DHT22;5677;48.488;13.436;2023-04-24T10:42:34;14.40;45.90
11239;DHT22;5677;48.488;13.436;2023-04-24T10:45:06;14.40;45.90
11239;DHT22;5677;48.488;13.436;2023-04-24T10:47:40;14.40;46.00
11239;DHT22;5677;48.488;13.436;2023-04-24T10:50:09;14.40;45.90
11239;DHT22;5677;48.488;13.436;2023-04-24T10:52:46;14.40;45.90
11239;DHT22;5677;48.488;13.436;2023-04-24T10:55:13;14.40;45.90
11239;DHT22;5677;48.488;13.436;2023-04-24T10:58:01;14.40;45.90
11239;DHT22;5677;48.488;13.436;2023-04-24T11:00:29;14.40;45.90
11239;DHT22;5677;48.488;13.436;2023-04-24T11:02:57;14.40;45.90
11239;DHT22;5677;48.488;13.436;2023-04-24T11:08:37;14.40;46.00
11239;DHT22;5677;48.488;13.436;2023-04-24T11:11:09;14.40;46.00
11239;DHT22;5677;48.488;13.436;2023-04-24T11:14:02;14.40;46.00
11239;DHT22;5677;48.488;13.436;2023-04-24T11:16:32;14.40;46.10
11239;DHT22;5677;48.488;13.436;2023-04-24T11:19:04;14.40;46.10
11239;DHT22;5677;48.488;13.436;2023-04-24T11:21:33;14.40;46.10
11239;DHT22;5677;48.488;13.436;2023-04-24T11:24:26;14.40;46.10
11239;DHT22;5677;48.488;13.436;2023-04-24T11:26:54;14.40;46.20
11239;DHT22;5677;48.488;13.436;2023-04-24T11:29:22;14.40;46.10
11239;DHT22;5677;48.488;13.436;2023-04-24T11:31:50;14.40;46.10
11239;DHT22;5677;48.488;13.436;2023-04-24T11:34:18;14.40;46.10
11239;DHT22;5677;48.488;13.436;2023-04-24T11:36:45;14.40;46.10
11239;DHT22;5677;48.488;13.436;2023-04-24T11:39:12;14.40;46.10
11239;DHT22;5677;48.488;13.436;2023-04-24T11:41:39;14.40;46.10
11239;DHT22;5677;48.488;13.436;2023-04-24T11:44:08;14.40;46.10
11239;DHT22;5677;48.488;13.436;2023-04-24T11:46:35;14.40;46.10
11239;DHT22;5677;48.488;13.436;2023-04-24T11:49:04;14.40;46.10
11239;DHT22;5677;48.488;13.436;2023-04-24T11:51:32;14.40;46.10
11239;DHT22;5677;48.488;13.436;2023-04-24T11:54:00;14.40;46.10
11239;DHT22;5677;48.488;13.436;2023-04-24T11:56:27;14.50;46.20
11239;DHT22;5677;48.488;13.436;2023-04-24T11:58:54;14.50;46.10
11239;DHT22;5677;48.488;13.436;2023-04-24T12:01:21;14.50;46.10
11239;DHT22;5677;48.488;13.436;2023-04-24T12:03:49;14.40;46.00
11239;DHT22;5677;48.488;13.436;2023-04-24T12:06:17;14.40;46.70
11239;DHT22;5677;48.488;13.436;2023-04-24T12:08:48;14.40;46.00
11239;DHT22;5677;48.488;13.436;2023-04-24T12:11:16;14.50;46.10
11239;DHT22;5677;48.488;13.436;2023-04-24T12:13:44;14.50;46.10
11239;DHT22;5677;48.488;13.436;2023-04-24T12:16:11;14.50;46.00
11239;DHT22;5677;48.488;13.436;2023-04-24T12:18:42;14.50;46.10
11239;DHT22;5677;48.488;13.436;2023-04-24T12:21:22;14.50;46.00
11239;DHT22;5677;48.488;13.436;2023-04-24T12:23:54;14.50;46.10
11239;DHT22;5677;48.488;13.436;2023-04-24T12:26:21;14.50;46.00
11239;DHT22;5677;48.488;13.436;2023-04-24T12:28:49;14.50;46.00
11239;DHT22;5677;48.488;13.436;2023-04-24T12:31:16;14.50;46.00
11239;DHT22;5677;48.488;13.436;2023-04-24T12:33:43;14.50;46.00
11239;DHT22;5677;48.488;13.436;2023-04-24T12:36:11;14.50;45.90
11239;DHT22;5677;48.488;13.436;2023-04-24T12:38:43;14.50;45.90
11239;DHT22;5677;48.488;13.436;2023-04-24T12:41:13;14.60;45.90
11239;DHT22;5677;48.488;13.436;2023-04-24T12:43:51;14.60;45.90
11239;DHT22;5677;48.488;13.436;2023-04-24T12:46:19;14.60;45.90
11239;DHT22;5677;48.488;13.436;2023-04-24T12:48:45;14.60;45.90
11239;DHT22;5677;48.488;13.436;2023-04-24T12:51:12;14.60;45.90
11239;DHT22;5677;48.488;13.436;2023-04-24T12:53:40;14.60;45.90
11239;DHT22;5677;48.488;13.436;2023-04-24T12:56:07;14.60;45.90
11239;DHT22;5677;48.488;13.436;2023-04-24T12:58:34;14.60;45.90
11239;DHT22;5677;48.488;13.436;2023-04-24T13:01:00;14.60;45.90
11239;DHT22;5677;48.488;13.436;2023-04-24T13:03:27;14.60;45.90
11239;DHT22;5677;48.488;13.436;2023-04-24T13:05:54;14.60;45.80
11239;DHT22;5677;48.488;13.436;2023-04-24T13:08:21;14.60;45.90
11239;DHT22;5677;48.488;13.436;2023-04-24T13:10:49;14.60;45.80
11239;DHT22;5677;48.488;13.436;2023-04-24T13:13:17;14.60;45.80
11239;DHT22;5677;48.488;13.436;2023-04-24T13:15:44;14.60;45.80
11239;DHT22;5677;48.488;13.436;2023-04-24T13:18:11;14.60;45.80
11239;DHT22;5677;48.488;13.436;2023-04-24T13:20:37;14.60;45.80
11239;DHT22;5677;48.488;13.436;2023-04-24T13:23:06;14.60;45.80
11239;DHT22;5677;48.488;13.436;2023-04-24T13:25:35;14.60;45.80
11239;DHT22;5677;48.488;13.436;2023-04-24T13:28:04;14.60;45.80
11239;DHT22;5677;48.488;13.436;2023-04-24T13:30:31;14.60;45.80
11239;DHT22;5677;48.488;13.436;2023-04-24T13:32:58;14.60;45.90
11239;DHT22;5677;48.488;13.436;2023-04-24T13:35:24;14.60;45.90
11239;DHT22;5677;48.488;13.436;2023-04-24T13:37:51;14.60;45.90
11239;DHT22;5677;48.488;13.436;2023-04-24T13:40:18;14.60;46.00
11239;DHT22;5677;48.488;13.436;2023-04-24T13:42:45;14.50;46.00
11239;DHT22;5677;48.488;13.436;2023-04-24T13:45:13;14.50;46.00
11239;DHT22;5677;48.488;13.436;2023-04-24T13:47:40;14.50;46.10
11239;DHT22;5677;48.488;13.436;2023-04-24T13:50:08;14.50;46.10
11239;DHT22;5677;48.488;13.436;2023-04-24T13:52:35;14.50;46.00
11239;DHT22;5677;48.488;13.436;2023-04-24T13:55:01;14.50;46.10
11239;DHT22;5677;48.488;13.436;2023-04-24T13:57:28;14.50;46.10
11239;DHT22;5677;48.488;13.436;2023-04-24T13:59:57;14.50;46.10
11239;DHT22;5677;48.488;13.436;2023-04-24T14:02:27;14.50;46.10
11239;DHT22;5677;48.488;13.436;2023-04-24T14:04:54;14.50;46.10
11239;DHT22;5677;48.488;13.436;2023-04-24T14:07:21;14.50;46.10
11239;DHT22;5677;48.488;13.436;2023-04-24T14:09:48;14.50;46.10
11239;DHT22;5677;48.488;13.436;2023-04-24T14:12:15;14.50;46.10
11239;DHT22;5677;48.488;13.436;2023-04-24T14:14:45;14.50;46.10
11239;DHT22;5677;48.488;13.436;2023-04-24T14:17:13;14.50;46.10
11239;DHT22;5677;48.488;13.436;2023-04-24T14:19:41;14.50;46.10
11239;DHT22;5677;48.488;13.436;2023-04-24T14:22:08;14.50;46.10
11239;DHT22;5677;48.488;13.436;2023-04-24T14:24:35;14.50;46.10
11239;DHT22;5677;48.488;13.436;2023-04-24T14:27:01;14.50;46.10
11239;DHT22;5677;48.488;13.436;2023-04-24T14:29:28;14.50;46.10
11239;DHT22;5677;48.488;13.436;2023-04-24T14:31:55;14.50;46.10
11239;DHT22;5677;48.488;13.436;2023-04-24T14:34:22;14.50;46.10
11239;DHT22;5677;48.488;13.436;2023-04-24T14:36:50;14.50;46.10
11239;DHT22;5677;48.488;13.436;2023-04-24T14:39:17;14.50;46.00
11239;DHT22;5677;48.488;13.436;2023-04-24T14:41:43;14.50;46.00
11239;DHT22;5677;48.488;13.436;2023-04-24T14:44:10;14.50;46.00
11239;DHT22;5677;48.488;13.436;2023-04-24T14:46:37;14.50;46.00
11239;DHT22;5677;48.488;13.436;2023-04-24T14:49:04;14.50;46.00
11239;DHT22;5677;48.488;13.436;2023-04-24T14:51:35;14.50;46.00
11239;DHT22;5677;48.488;13.436;2023-04-24T14:54:03;14.50;46.00
11239;DHT22;5677;48.488;13.436;2023-04-24T14:56:30;14.50;46.00
11239;DHT22;5677;48.488;13.436;2023-04-24T14:58:56;14.60;45.90
11239;DHT22;5677;48.488;13.436;2023-04-24T15:01:23;14.60;46.60
11239;DHT22;5677;48.488;13.436;2023-04-24T15:03:50;14.50;45.90
11239;DHT22;5677;48.488;13.436;2023-04-24T15:06:17;14.60;45.80
11239;DHT22;5677;48.488;13.436;2023-04-24T15:08:44;14.60;45.90
11239;DHT22;5677;48.488;13.436;2023-04-24T15:11:12;14.60;45.80
11239;DHT22;5677;48.488;13.436;2023-04-24T15:13:39;14.60;45.90
11239;DHT22;5677;48.488;13.436;2023-04-24T15:16:05;14.60;45.90
11239;DHT22;5677;48.488;13.436;2023-04-24T15:18:32;14.60;45.80
11239;DHT22;5677;48.488;13.436;2023-04-24T15:20:59;14.60;45.80
11239;DHT22;5677;48.488;13.436;2023-04-24T15:23:26;14.60;45.90
11239;DHT22;5677;48.488;13.436;2023-04-24T15:25:52;14.60;45.90
11239;DHT22;5677;48.488;13.436;2023-04-24T15:28:20;14.60;45.90
11239;DHT22;5677;48.488;13.436;2023-04-24T15:30:47;14.60;45.90
11239;DHT22;5677;48.488;13.436;2023-04-24T15:33:14;14.50;45.90
11239;DHT22;5677;48.488;13.436;2023-04-24T15:35:41;14.60;45.90